Bristol, Georgia
Current Conditions -  °F | °C
As of 6:55 PM on Sunday 23 Nov 2014 (Local Time) from KAYS Reporting Station
Overcast Overcast  
Wind Chill: 25°   Ceiling: 2200
Heat Index: 25°   Visibility: 10mi
Dew Point: 24°   Wind: 14mph
Humidity: 93%   Direction: 210°SSW
Pressure: 29.83"   Gusts: 18mph
Location:  31.45°N, 82.21°W
Report Text: KAYS 232355Z AUTO 21012G16KT 10SM OVC022 25/24 A2983 RMK AO2 T02470235 10255 20240
Loading
Personal Weather Stations






























Interactive Weather Map New forecast layout! Learn more

10-Day Weather Forecast

Advertisements
Track Severe Weather on mobile